Skip Navigation LinksHome page > Weather > Current weather Skip Navigation Links

Current Weather

Indira Gandhi Intl Apt, New Delhi, India

For information only: do not use for flight planning or navigation.
Latest weather
Observation time Monday, December 5, 2016 1:30 PM IST
Local time Monday, December 5, 2016 1:55 PM IST
Flight conditions Instrument Meteorological Conditions
Winds
Wind direction Northwest (320°)
Wind speed 7 mph
Visibility 1.1 mi.
Present weather smoke
Sky condition
Ceiling unlimited
Temperature 73°F
Dewpoint 48°F
Altimeter 30.03 in.Hg
Derived measurements
Relative humidity 41%
Density altitude 1734 ft.
Remarks
No significant changes expected in the next two hours.
METAR VIDP 050800Z 32006KT 1800 R28/P2000 R29/P2000 FU NSC 23/09 Q1017 NOSIG

Settings

Location code

InnerDrive.Weather 4.0.6144.1 Release CLR 4.0.30319.34209
Copyright ©2015 Inner Drive Technology. All rights reserved. Portions Copyright ©1986-2015 David Braverman.

Find weather

Site navigation


Skip Navigation Links

Place info

Page info

PayPal - The safer, easier way to pay online!

Return home.

Copyright ©2016 Inner Drive Technology. Purveyors of fine, hand-crafted computer software. Page printed 2016-12-05T08:25:53 UTC.